Time;durP1;ratioP1;P1;durP2;ratioP2;P2;SDS_P1;SDS_P2;PMS_P1;PMS_P2;Temp;Humidity;BMP_temperature;BMP_pressure;BME280_temperature;BME280_humidity;BME280_pressure;Samples;Min_cycle;Max_cycle;Signal;HPM_P1;HPM_P2
2021/06/02 00:00:42;;;;;;;;;;;9.80;99.90;;;;;;5113313;28;19908;-71
2021/06/02 00:03:09;;;;;;;;;;;9.80;99.90;;;;;;5113111;28;19931;-71
2021/06/02 00:05:34;;;;;;;;;;;9.70;99.90;;;;;;5112430;28;20704;-71
2021/06/02 00:08:00;;;;;;;;;;;9.70;99.90;;;;;;5112523;28;19908;-71
2021/06/02 00:10:25;;;;;;;;;;;9.70;99.90;;;;;;5111559;28;19907;-71
2021/06/02 00:12:51;;;;;;;;;;;9.70;99.90;;;;;;5085663;28;20300;-70
2021/06/02 00:15:17;;;;;;;;;;;9.70;99.90;;;;;;5092427;28;20014;-71
2021/06/02 00:17:42;;;;;;;;;;;9.70;99.90;;;;;;5091712;28;19909;-71
2021/06/02 00:20:08;;;;;;;;;;;9.60;99.90;;;;;;5092455;28;19916;-71
2021/06/02 00:22:34;;;;;;;;;;;9.60;99.90;;;;;;5092087;28;19908;-71
2021/06/02 00:25:00;;;;;;;;;;;9.50;99.90;;;;;;5091671;28;19915;-70
2021/06/02 00:27:25;;;;;;;;;;;9.50;99.90;;;;;;5091552;28;19908;-70
2021/06/02 00:29:51;;;;;;;;;;;9.40;99.90;;;;;;5092255;28;19912;-71
2021/06/02 00:32:19;;;;;;;;;;;9.40;99.90;;;;;;5092212;28;19967;-71
2021/06/02 00:34:45;;;;;;;;;;;9.30;99.90;;;;;;5092626;28;20369;-71
2021/06/02 00:37:11;;;;;;;;;;;9.30;99.90;;;;;;5091375;28;19908;-71
2021/06/02 00:39:37;;;;;;;;;;;9.30;99.90;;;;;;5091680;28;19965;-71
2021/06/02 00:42:02;;;;;;;;;;;9.30;99.90;;;;;;5084198;28;20377;-71
2021/06/02 00:44:28;;;;;;;;;;;9.20;99.90;;;;;;5091817;28;20283;-71
2021/06/02 00:46:57;;;;;;;;;;;9.20;99.90;;;;;;5091565;28;19912;-71
2021/06/02 00:49:23;;;;;;;;;;;9.20;99.90;;;;;;5091493;28;19966;-71
2021/06/02 00:51:49;;;;;;;;;;;9.10;99.90;;;;;;5091903;28;19923;-70
2021/06/02 00:54:16;;;;;;;;;;;9.10;99.90;;;;;;5091737;28;20057;-70
2021/06/02 00:56:43;;;;;;;;;;;9.10;99.90;;;;;;5091272;28;19909;-70
2021/06/02 00:59:09;;;;;;;;;;;9.10;99.90;;;;;;5091777;28;19956;-70
2021/06/02 01:01:35;;;;;;;;;;;9.10;99.90;;;;;;5091697;28;19988;-71
2021/06/02 01:04:04;;;;;;;;;;;9.00;99.90;;;;;;5091602;28;19912;-71
2021/06/02 01:06:33;;;;;;;;;;;9.00;99.90;;;;;;5090901;28;19919;-71
2021/06/02 01:09:00;;;;;;;;;;;9.00;99.90;;;;;;5091233;28;20333;-71
2021/06/02 01:11:26;;;;;;;;;;;8.90;99.90;;;;;;5083822;28;19965;-71
2021/06/02 01:13:54;;;;;;;;;;;8.90;99.90;;;;;;5096469;28;20192;-70
2021/06/02 01:16:20;;;;;;;;;;;8.80;99.90;;;;;;5110187;28;19950;-70
2021/06/02 01:18:46;;;;;;;;;;;8.70;99.90;;;;;;5112125;28;19939;-70
2021/06/02 01:21:17;;;;;;;;;;;8.60;99.90;;;;;;5111850;28;20394;-70
2021/06/02 01:23:43;;;;;;;;;;;8.60;99.90;;;;;;5111523;28;19931;-70
2021/06/02 01:26:09;;;;;;;;;;;8.60;99.90;;;;;;5110795;28;20352;-72
2021/06/02 01:28:34;;;;;;;;;;;8.60;99.90;;;;;;5111592;28;19915;-70
2021/06/02 01:31:01;;;;;;;;;;;8.70;99.90;;;;;;5111428;28;20223;-70
2021/06/02 01:33:45;;;;;;;;;;;8.60;99.90;;;;;;5111645;28;20003;-72
2021/06/02 01:36:12;;;;;;;;;;;8.60;99.90;;;;;;5110467;28;19965;-70
2021/06/02 01:38:44;;;;;;;;;;;8.50;99.90;;;;;;5111220;28;20296;-71
2021/06/02 01:41:13;;;;;;;;;;;8.50;99.90;;;;;;5101023;28;19916;-70
2021/06/02 01:44:01;;;;;;;;;;;8.50;99.90;;;;;;5111092;28;19958;-70
2021/06/02 01:46:32;;;;;;;;;;;8.50;99.90;;;;;;5110733;28;20357;-70
2021/06/02 01:49:16;;;;;;;;;;;8.40;99.90;;;;;;5111494;28;19965;-70
2021/06/02 01:51:41;;;;;;;;;;;8.30;99.90;;;;;;5111285;28;19912;-70
2021/06/02 01:54:34;;;;;;;;;;;8.30;99.90;;;;;;5111171;28;20353;-70
2021/06/02 01:57:18;;;;;;;;;;;8.20;99.90;;;;;;5110568;28;19959;-72
2021/06/02 02:00:04;;;;;;;;;;;8.10;99.90;;;;;;5111333;28;19991;-71
2021/06/02 02:02:41;;;;;;;;;;;8.00;99.90;;;;;;5111310;28;19908;-73
2021/06/02 02:05:25;;;;;;;;;;;8.00;99.90;;;;;;5111611;28;20360;-70
2021/06/02 02:08:19;;;;;;;;;;;8.00;99.90;;;;;;5110207;28;19915;-71
2021/06/02 02:10:46;;;;;;;;;;;8.00;99.90;;;;;;5052028;28;20379;-71
2021/06/02 02:13:31;;;;;;;;;;;7.90;99.90;;;;;;5090774;28;19908;-74
2021/06/02 02:16:15;;;;;;;;;;;7.90;99.90;;;;;;5089910;28;19916;-71
2021/06/02 02:18:43;;;;;;;;;;;7.90;99.90;;;;;;5091116;28;20371;-71
2021/06/02 02:21:28;;;;;;;;;;;7.80;99.90;;;;;;5090825;28;19995;-70
2021/06/02 02:24:02;;;;;;;;;;;7.80;99.90;;;;;;5090596;28;19908;-70
2021/06/02 02:26:36;;;;;;;;;;;7.70;99.90;;;;;;5090052;28;19919;-71
2021/06/02 02:29:11;;;;;;;;;;;7.70;99.90;;;;;;5090637;28;19912;-72
2021/06/02 02:31:56;;;;;;;;;;;7.70;99.90;;;;;;5090742;28;19912;-70
2021/06/02 02:34:41;;;;;;;;;;;7.60;99.90;;;;;;5090575;28;20308;-71
2021/06/02 02:37:10;;;;;;;;;;;7.60;99.90;;;;;;5090264;28;19908;-70
2021/06/02 02:39:35;;;;;;;;;;;7.60;99.90;;;;;;5090024;28;19908;-70
2021/06/02 02:42:10;;;;;;;;;;;7.60;99.90;;;;;;5082910;28;19912;-70
2021/06/02 02:44:36;;;;;;;;;;;7.60;99.90;;;;;;5090295;28;20338;-70
2021/06/02 02:47:07;;;;;;;;;;;7.60;99.90;;;;;;5091215;28;19908;-70
2021/06/02 02:49:44;;;;;;;;;;;7.60;99.90;;;;;;5094320;28;20266;-71
2021/06/02 02:52:13;;;;;;;;;;;7.50;99.90;;;;;;5094063;28;19912;-70
2021/06/02 02:54:52;;;;;;;;;;;7.50;99.90;;;;;;5093884;28;19915;-70
2021/06/02 02:57:40;;;;;;;;;;;7.50;99.90;;;;;;5093547;28;19916;-70
2021/06/02 03:00:07;;;;;;;;;;;7.50;99.90;;;;;;5094248;28;19908;-70
2021/06/02 03:02:40;;;;;;;;;;;7.50;99.90;;;;;;5093943;28;20452;-70
2021/06/02 03:05:08;;;;;;;;;;;7.40;99.90;;;;;;5093895;28;20424;-71
2021/06/02 03:07:35;;;;;;;;;;;7.40;99.90;;;;;;5093108;28;20280;-70
2021/06/02 03:10:12;;;;;;;;;;;7.40;99.90;;;;;;5093775;28;19939;-73
2021/06/02 03:12:38;;;;;;;;;;;7.40;99.90;;;;;;5085917;28;20292;-70
2021/06/02 03:15:08;;;;;;;;;;;7.30;99.90;;;;;;5093395;28;19912;-71
2021/06/02 03:17:39;;;;;;;;;;;7.30;99.90;;;;;;5092946;28;19908;-71
2021/06/02 03:20:07;;;;;;;;;;;7.30;99.90;;;;;;5093810;28;19915;-70
2021/06/02 03:22:56;;;;;;;;;;;7.30;99.90;;;;;;5093284;28;19915;-71
2021/06/02 03:25:27;;;;;;;;;;;7.30;99.90;;;;;;5093329;28;19908;-71
2021/06/02 03:28:11;;;;;;;;;;;7.20;99.90;;;;;;5092460;28;19908;-71
2021/06/02 03:30:37;;;;;;;;;;;7.10;99.90;;;;;;5093704;28;19915;-71
2021/06/02 03:33:21;;;;;;;;;;;7.00;99.90;;;;;;5093347;28;19912;-71
2021/06/02 03:35:52;;;;;;;;;;;6.90;99.90;;;;;;5092482;28;20007;-70
2021/06/02 03:38:26;;;;;;;;;;;6.90;99.90;;;;;;5093053;28;19908;-71
2021/06/02 03:41:04;;;;;;;;;;;6.90;99.90;;;;;;5088819;28;19916;-70
2021/06/02 03:43:38;;;;;;;;;;;6.90;99.90;;;;;;5091362;28;19908;-70
2021/06/02 03:46:22;;;;;;;;;;;6.90;99.90;;;;;;5092389;28;19931;-71
2021/06/02 03:48:51;;;;;;;;;;;6.90;99.90;;;;;;5093050;28;19919;-72
2021/06/02 03:51:25;;;;;;;;;;;6.80;99.90;;;;;;5092980;28;20323;-71
2021/06/02 03:53:59;;;;;;;;;;;6.80;99.90;;;;;;5092753;28;19916;-71
2021/06/02 03:56:44;;;;;;;;;;;6.80;99.90;;;;;;5092301;28;20015;-70
2021/06/02 03:59:22;;;;;;;;;;;6.80;99.90;;;;;;5092649;28;20373;-70
2021/06/02 04:01:47;;;;;;;;;;;6.80;99.90;;;;;;5092921;28;19912;-70
2021/06/02 04:04:21;;;;;;;;;;;6.90;99.90;;;;;;5092689;28;19908;-71
2021/06/02 04:06:53;;;;;;;;;;;6.90;99.90;;;;;;5091975;28;19962;-72
2021/06/02 04:09:24;;;;;;;;;;;7.00;99.90;;;;;;5092169;28;19959;-71
2021/06/02 04:11:58;;;;;;;;;;;7.10;99.90;;;;;;5085043;28;20012;-70
2021/06/02 04:14:34;;;;;;;;;;;7.10;99.90;;;;;;5092670;28;20000;-72
2021/06/02 04:17:00;;;;;;;;;;;7.20;99.90;;;;;;5091763;28;19908;-71
2021/06/02 04:19:27;;;;;;;;;;;7.30;99.90;;;;;;5092377;28;19908;-71
2021/06/02 04:21:55;;;;;;;;;;;7.40;99.90;;;;;;5092423;28;19913;-71
2021/06/02 04:24:22;;;;;;;;;;;7.50;99.90;;;;;;5092143;28;19908;-71
2021/06/02 04:26:48;;;;;;;;;;;7.50;99.90;;;;;;5091535;28;20266;-71
2021/06/02 04:29:14;;;;;;;;;;;7.60;99.90;;;;;;5092274;28;19915;-71
2021/06/02 04:31:51;;;;;;;;;;;7.70;99.90;;;;;;5092178;28;19912;-71
2021/06/02 04:34:17;;;;;;;;;;;7.80;99.90;;;;;;5092025;28;19970;-71
2021/06/02 04:36:44;;;;;;;;;;;7.90;99.90;;;;;;5091658;28;19908;-74
2021/06/02 04:39:10;;;;;;;;;;;7.90;99.90;;;;;;5091884;28;19916;-71
2021/06/02 04:41:38;;;;;;;;;;;8.00;99.90;;;;;;5084138;28;19916;-72
2021/06/02 04:44:05;;;;;;;;;;;8.10;99.90;;;;;;5091834;28;19908;-71
2021/06/02 04:46:31;;;;;;;;;;;8.20;99.90;;;;;;5091348;28;20571;-71
2021/06/02 04:48:56;;;;;;;;;;;8.30;99.90;;;;;;5091874;28;19939;-71
2021/06/02 04:51:41;;;;;;;;;;;8.40;99.90;;;;;;5092118;28;19912;-71
2021/06/02 04:54:25;;;;;;;;;;;8.50;99.90;;;;;;5091579;28;20311;-71
2021/06/02 04:57:03;;;;;;;;;;;8.60;99.90;;;;;;5091074;28;20273;-71
2021/06/02 04:59:48;;;;;;;;;;;8.70;99.90;;;;;;5091855;28;19915;-71
2021/06/02 05:02:28;;;;;;;;;;;8.80;99.90;;;;;;5091716;28;19908;-71
2021/06/02 05:04:56;;;;;;;;;;;9.00;99.90;;;;;;5091766;28;20389;-72
2021/06/02 05:07:31;;;;;;;;;;;9.10;99.90;;;;;;5090915;28;19931;-73
2021/06/02 05:09:59;;;;;;;;;;;9.20;99.90;;;;;;5090644;28;19915;-72
2021/06/02 05:12:24;;;;;;;;;;;9.30;99.90;;;;;;5083474;28;19965;-71
2021/06/02 05:14:50;;;;;;;;;;;9.40;99.90;;;;;;5091424;28;20003;-73
2021/06/02 05:17:22;;;;;;;;;;;9.50;99.90;;;;;;5090748;28;19908;-71
2021/06/02 05:22:22;;;;;;;;;;;9.80;99.90;;;;;;5091473;28;20277;-71
2021/06/02 05:25:05;;;;;;;;;;;10.00;99.90;;;;;;5091149;28;19931;-71
2021/06/02 05:27:33;;;;;;;;;;;10.20;99.90;;;;;;5090757;28;19915;-71
2021/06/02 05:30:04;;;;;;;;;;;10.60;99.90;;;;;;5091343;28;19915;-73
2021/06/02 05:32:32;;;;;;;;;;;10.90;99.90;;;;;;5091087;28;20019;-71
2021/06/02 05:35:13;;;;;;;;;;;11.10;99.90;;;;;;5089975;28;19958;-71
2021/06/02 05:38:02;;;;;;;;;;;11.50;99.90;;;;;;5089181;28;19908;-73
2021/06/02 05:40:45;;;;;;;;;;;12.00;99.90;;;;;;5089104;28;19920;-71
2021/06/02 05:43:21;;;;;;;;;;;12.40;99.90;;;;;;5086770;28;19908;-71
2021/06/02 05:46:05;;;;;;;;;;;12.90;99.90;;;;;;5090238;28;19915;-73
2021/06/02 05:48:33;;;;;;;;;;;13.50;99.90;;;;;;5090621;28;19915;-73
2021/06/02 05:51:17;;;;;;;;;;;14.00;99.90;;;;;;5091085;28;19912;-73
2021/06/02 05:53:58;;;;;;;;;;;14.40;99.90;;;;;;5090671;28;20254;-73
2021/06/02 05:56:42;;;;;;;;;;;14.50;99.90;;;;;;5090160;28;19977;-72
2021/06/02 05:59:13;;;;;;;;;;;15.10;99.90;;;;;;5091018;28;19912;-71
2021/06/02 06:01:47;;;;;;;;;;;15.80;99.90;;;;;;5090897;28;19908;-72
2021/06/02 06:04:32;;;;;;;;;;;16.30;99.00;;;;;;5090990;28;19931;-74
2021/06/02 06:07:04;;;;;;;;;;;16.80;98.20;;;;;;5090235;28;19931;-72
2021/06/02 06:09:41;;;;;;;;;;;17.40;97.60;;;;;;5090688;28;19915;-71
2021/06/02 06:12:07;;;;;;;;;;;17.80;96.90;;;;;;5083032;28;20000;-74
2021/06/02 06:14:35;;;;;;;;;;;18.30;96.30;;;;;;5089438;28;19958;-71
2021/06/02 06:17:01;;;;;;;;;;;18.60;95.40;;;;;;5090029;28;19908;-72
2021/06/02 06:19:29;;;;;;;;;;;18.90;94.60;;;;;;5090799;28;19915;-71
2021/06/02 06:22:04;;;;;;;;;;;19.00;94.30;;;;;;5093535;28;20361;-72
2021/06/02 06:24:29;;;;;;;;;;;19.00;94.20;;;;;;5093575;28;19908;-72
2021/06/02 06:27:10;;;;;;;;;;;19.40;94.50;;;;;;5094355;28;19912;-71
2021/06/02 06:29:45;;;;;;;;;;;19.80;94.30;;;;;;5094807;28;19908;-71
2021/06/02 06:32:10;;;;;;;;;;;20.40;92.60;;;;;;5094618;28;19916;-71
2021/06/02 06:34:36;;;;;;;;;;;21.00;92.30;;;;;;5094597;28;19909;-71
2021/06/02 06:37:03;;;;;;;;;;;21.60;91.70;;;;;;5093515;28;19912;-71
2021/06/02 06:39:34;;;;;;;;;;;21.90;89.70;;;;;;5094056;28;19919;-72
2021/06/02 06:42:01;;;;;;;;;;;22.30;89.80;;;;;;5086665;28;19916;-71
2021/06/02 06:44:27;;;;;;;;;;;22.50;87.20;;;;;;5094503;28;19915;-71
2021/06/02 06:46:55;;;;;;;;;;;22.80;87.90;;;;;;5076018;28;19920;-69
2021/06/02 06:49:22;;;;;;;;;;;23.20;87.40;;;;;;5074047;28;19948;-68
2021/06/02 06:51:52;;;;;;;;;;;23.30;86.10;;;;;;5073622;28;20296;-70
2021/06/02 06:54:18;;;;;;;;;;;23.60;87.20;;;;;;5074556;28;19961;-69
2021/06/02 06:56:45;;;;;;;;;;;24.10;85.10;;;;;;5072365;28;19908;-69
2021/06/02 06:59:10;;;;;;;;;;;24.30;83.60;;;;;;5073647;28;19915;-69
2021/06/02 07:01:37;;;;;;;;;;;24.70;78.90;;;;;;5072964;28;19909;-69
2021/06/02 07:04:03;;;;;;;;;;;25.20;77.50;;;;;;5073615;28;20361;-69
2021/06/02 07:06:29;;;;;;;;;;;25.60;74.30;;;;;;5083763;28;19919;-69
2021/06/02 07:08:55;;;;;;;;;;;26.00;66.70;;;;;;5093136;28;19947;-69
2021/06/02 07:11:21;;;;;;;;;;;26.40;64.00;;;;;;5085939;28;20001;-69
2021/06/02 07:13:47;;;;;;;;;;;26.50;64.70;;;;;;5091769;28;20378;-69
2021/06/02 07:16:14;;;;;;;;;;;26.80;65.60;;;;;;5094490;28;20085;-69
2021/06/02 07:18:41;;;;;;;;;;;26.90;65.40;;;;;;5093801;28;19916;-69
2021/06/02 07:21:08;;;;;;;;;;;27.00;64.00;;;;;;5093964;28;19908;-70
2021/06/02 07:23:33;;;;;;;;;;;27.40;64.80;;;;;;5093776;28;20304;-69
2021/06/02 07:25:59;;;;;;;;;;;27.10;60.10;;;;;;5093239;28;20018;-69
2021/06/02 07:28:37;;;;;;;;;;;26.90;58.60;;;;;;5093599;28;19915;-70
2021/06/02 07:31:04;;;;;;;;;;;26.70;61.00;;;;;;5093449;28;19973;-69
2021/06/02 07:33:30;;;;;;;;;;;26.60;63.60;;;;;;5092708;28;19908;-69
2021/06/02 07:35:55;;;;;;;;;;;26.60;61.30;;;;;;5091013;28;19908;-70
2021/06/02 07:38:21;;;;;;;;;;;26.50;59.80;;;;;;5087685;28;19908;-69
2021/06/02 07:40:46;;;;;;;;;;;26.70;58.60;;;;;;5089119;28;20019;-70
2021/06/02 07:43:12;;;;;;;;;;;26.60;58.40;;;;;;5089177;28;19915;-69
2021/06/02 07:45:38;;;;;;;;;;;26.10;57.30;;;;;;5092655;28;19934;-69
2021/06/02 07:48:03;;;;;;;;;;;26.00;62.40;;;;;;5092795;28;20269;-70
2021/06/02 07:50:29;;;;;;;;;;;25.90;58.50;;;;;;5093255;28;19908;-69
2021/06/02 07:52:54;;;;;;;;;;;26.00;60.60;;;;;;5093116;28;19919;-70
2021/06/02 07:55:20;;;;;;;;;;;26.10;59.20;;;;;;5092697;28;19915;-70
2021/06/02 07:57:45;;;;;;;;;;;26.30;60.30;;;;;;5092293;28;20419;-69
2021/06/02 08:00:11;;;;;;;;;;;26.30;61.80;;;;;;5092531;28;19987;-71
2021/06/02 08:02:37;;;;;;;;;;;26.10;62.40;;;;;;5092520;28;20280;-69
2021/06/02 08:05:03;;;;;;;;;;;26.30;58.90;;;;;;5092797;28;19914;-70
2021/06/02 08:07:29;;;;;;;;;;;26.50;60.00;;;;;;5091863;28;19915;-70
2021/06/02 08:09:54;;;;;;;;;;;26.60;62.00;;;;;;5092564;28;19908;-69
2021/06/02 08:12:20;;;;;;;;;;;26.60;62.70;;;;;;5084829;28;19991;-69
2021/06/02 08:14:45;;;;;;;;;;;27.10;58.50;;;;;;5092552;28;19915;-70
2021/06/02 08:17:11;;;;;;;;;;;27.40;63.70;;;;;;5089985;28;19977;-69
2021/06/02 08:19:37;;;;;;;;;;;27.60;58.00;;;;;;5092609;28;19912;-69
2021/06/02 08:22:03;;;;;;;;;;;27.70;58.70;;;;;;5092771;28;19908;-70
2021/06/02 08:24:30;;;;;;;;;;;28.00;57.00;;;;;;5092423;28;19908;-69
2021/06/02 08:26:55;;;;;;;;;;;28.10;56.00;;;;;;5091923;28;19961;-69
2021/06/02 08:29:21;;;;;;;;;;;28.30;58.80;;;;;;5092189;28;19913;-69
2021/06/02 08:31:46;;;;;;;;;;;28.40;58.30;;;;;;5092370;28;19912;-69
2021/06/02 08:34:12;;;;;;;;;;;28.70;59.60;;;;;;5092544;28;20399;-70
2021/06/02 08:36:37;;;;;;;;;;;29.00;55.70;;;;;;5088957;28;19919;-69
2021/06/02 08:39:07;;;;;;;;;;;29.20;60.00;;;;;;5107656;28;20444;-70
2021/06/02 08:41:34;;;;;;;;;;;29.30;58.40;;;;;;5094841;28;19916;-69
2021/06/02 08:44:00;;;;;;;;;;;29.40;61.50;;;;;;5091610;28;20281;-69
2021/06/02 08:46:25;;;;;;;;;;;29.60;56.60;;;;;;5091728;28;19912;-69
2021/06/02 08:48:51;;;;;;;;;;;29.80;61.80;;;;;;5092570;28;19962;-69
2021/06/02 08:51:19;;;;;;;;;;;29.90;55.50;;;;;;5092067;28;20365;-69
2021/06/02 08:53:48;;;;;;;;;;;29.80;55.90;;;;;;5092189;28;20284;-70
2021/06/02 08:56:14;;;;;;;;;;;29.70;59.00;;;;;;5091102;28;19908;-69
2021/06/02 08:58:39;;;;;;;;;;;29.80;55.50;;;;;;5091708;28;19945;-69
2021/06/02 09:01:05;;;;;;;;;;;29.90;56.80;;;;;;5091879;28;19918;-70
2021/06/02 09:03:31;;;;;;;;;;;29.90;56.30;;;;;;5091961;28;20007;-69
2021/06/02 09:05:57;;;;;;;;;;;30.10;56.90;;;;;;5090895;28;19914;-70
2021/06/02 09:08:23;;;;;;;;;;;29.70;49.70;;;;;;5091778;28;19999;-69
2021/06/02 09:10:49;;;;;;;;;;;29.10;51.30;;;;;;5087863;28;19908;-70
2021/06/02 09:13:15;;;;;;;;;;;29.10;56.80;;;;;;5087736;28;19998;-69
2021/06/02 09:15:43;;;;;;;;;;;29.30;56.70;;;;;;5088077;28;19912;-70
2021/06/02 09:18:13;;;;;;;;;;;29.70;55.80;;;;;;5090024;28;19913;-70
2021/06/02 09:20:43;;;;;;;;;;;29.80;53.10;;;;;;5091706;28;20335;-70
2021/06/02 09:23:27;;;;;;;;;;;30.00;49.60;;;;;;5091448;28;19912;-70
2021/06/02 09:25:56;;;;;;;;;;;29.70;52.30;;;;;;5090124;28;19912;-69
2021/06/02 09:28:21;;;;;;;;;;;29.60;56.70;;;;;;5091321;28;19916;-69
2021/06/02 09:30:47;;;;;;;;;;;29.50;50.50;;;;;;5091343;28;20007;-70
2021/06/02 09:33:12;;;;;;;;;;;29.70;53.20;;;;;;5090976;28;20277;-69
2021/06/02 09:35:39;;;;;;;;;;;30.00;53.80;;;;;;5084249;28;20423;-69
2021/06/02 09:38:06;;;;;;;;;;;30.30;56.10;;;;;;5085763;28;19953;-69
2021/06/02 09:40:36;;;;;;;;;;;30.70;53.20;;;;;;5090450;28;19920;-70
2021/06/02 09:43:02;;;;;;;;;;;31.00;48.20;;;;;;5091040;28;20284;-70
2021/06/02 09:45:27;;;;;;;;;;;31.20;49.80;;;;;;5091402;28;20334;-70
2021/06/02 09:47:57;;;;;;;;;;;31.20;52.30;;;;;;5090542;28;19999;-69
2021/06/02 09:50:26;;;;;;;;;;;31.40;49.40;;;;;;5091052;28;20365;-70
2021/06/02 09:52:52;;;;;;;;;;;31.60;52.10;;;;;;5090916;28;19912;-69
2021/06/02 09:55:19;;;;;;;;;;;31.90;47.40;;;;;;5091385;28;20424;-70
2021/06/02 09:57:45;;;;;;;;;;;32.00;49.60;;;;;;5097056;28;19908;-69
2021/06/02 10:00:11;;;;;;;;;;;32.00;47.10;;;;;;5096573;28;20273;-69
2021/06/02 10:02:37;;;;;;;;;;;31.90;48.10;;;;;;5097207;28;19915;-69
2021/06/02 10:05:07;;;;;;;;;;;31.70;45.80;;;;;;5097623;28;20357;-69
2021/06/02 10:07:33;;;;;;;;;;;31.30;46.70;;;;;;5092143;28;20209;-70
2021/06/02 10:10:19;;;;;;;;;;;30.90;45.90;;;;;;5097545;28;19915;-70
2021/06/02 10:12:57;;;;;;;;;;;30.60;52.20;;;;;;5097708;28;19919;-69
2021/06/02 10:15:26;;;;;;;;;;;30.30;44.80;;;;;;5097447;28;19915;-69
2021/06/02 10:17:52;;;;;;;;;;;30.10;51.20;;;;;;5089604;28;19908;-69
2021/06/02 10:20:17;;;;;;;;;;;30.20;46.50;;;;;;5097519;28;19996;-69
2021/06/02 10:22:49;;;;;;;;;;;30.50;48.20;;;;;;5097644;28;19931;-69
2021/06/02 10:25:15;;;;;;;;;;;30.80;51.00;;;;;;5097250;28;19915;-68
2021/06/02 10:27:41;;;;;;;;;;;31.20;49.50;;;;;;5096910;28;19909;-70
2021/06/02 10:30:08;;;;;;;;;;;31.50;52.00;;;;;;5097664;28;19968;-70
2021/06/02 10:32:33;;;;;;;;;;;32.00;44.80;;;;;;5097333;28;19912;-69
2021/06/02 10:34:59;;;;;;;;;;;32.10;45.10;;;;;;5097091;28;19909;-70
2021/06/02 10:37:25;;;;;;;;;;;32.20;44.40;;;;;;5095620;28;19998;-69
2021/06/02 10:39:53;;;;;;;;;;;32.10;47.40;;;;;;5097326;28;19947;-69
2021/06/02 10:42:21;;;;;;;;;;;31.70;47.30;;;;;;5097313;28;19953;-70
2021/06/02 10:45:10;;;;;;;;;;;31.50;46.30;;;;;;5097559;28;19908;-69
2021/06/02 10:47:36;;;;;;;;;;;31.30;45.00;;;;;;5086521;28;19986;-68
2021/06/02 10:50:01;;;;;;;;;;;31.20;43.80;;;;;;5097387;28;19912;-69
2021/06/02 10:52:42;;;;;;;;;;;31.40;51.00;;;;;;5097315;28;19912;-69
2021/06/02 10:55:26;;;;;;;;;;;31.50;44.80;;;;;;5096935;28;19953;-70
2021/06/02 10:58:10;;;;;;;;;;;31.60;43.70;;;;;;5096464;28;19908;-69
2021/06/02 11:00:35;;;;;;;;;;;31.40;43.10;;;;;;5097260;28;19943;-70
2021/06/02 11:03:17;;;;;;;;;;;31.10;45.10;;;;;;5097461;28;19908;-69
2021/06/02 11:05:43;;;;;;;;;;;30.70;42.90;;;;;;5096469;28;20331;-70
2021/06/02 11:08:08;;;;;;;;;;;30.70;47.60;;;;;;5093719;28;19912;-71
2021/06/02 11:10:34;;;;;;;;;;;30.90;46.10;;;;;;5093845;28;19908;-72
2021/06/02 11:13:00;;;;;;;;;;;31.20;43.90;;;;;;5094071;28;19916;-72
2021/06/02 11:15:28;;;;;;;;;;;31.20;42.50;;;;;;5093243;28;20316;-72
2021/06/02 11:18:09;;;;;;;;;;;31.30;46.60;;;;;;5086727;28;20608;-72
2021/06/02 11:20:40;;;;;;;;;;;31.20;47.10;;;;;;5093650;28;19998;-72
2021/06/02 11:23:06;;;;;;;;;;;31.40;44.20;;;;;;5093907;28;20363;-70
2021/06/02 11:25:32;;;;;;;;;;;31.50;50.20;;;;;;5093364;28;19915;-70
2021/06/02 11:27:58;;;;;;;;;;;31.70;44.70;;;;;;5093206;28;20296;-70
2021/06/02 11:30:24;;;;;;;;;;;31.80;44.30;;;;;;5093990;28;19948;-70
2021/06/02 11:32:51;;;;;;;;;;;32.10;43.60;;;;;;5093542;28;19916;-70
2021/06/02 11:35:16;;;;;;;;;;;32.20;44.20;;;;;;5089133;28;20381;-70
2021/06/02 11:37:42;;;;;;;;;;;32.20;45.60;;;;;;5109302;28;19908;-69
2021/06/02 11:40:13;;;;;;;;;;;32.30;42.60;;;;;;5093259;28;19927;-71
2021/06/02 11:42:43;;;;;;;;;;;32.00;41.70;;;;;;5093670;28;19919;-70
2021/06/02 11:45:09;;;;;;;;;;;32.00;44.90;;;;;;5093247;28;19912;-70
2021/06/02 11:47:36;;;;;;;;;;;32.20;47.00;;;;;;5085092;28;19916;-69
2021/06/02 11:50:03;;;;;;;;;;;32.10;42.80;;;;;;5093302;28;19908;-70
2021/06/02 11:52:29;;;;;;;;;;;32.10;45.30;;;;;;5093150;28;20443;-70
2021/06/02 11:54:58;;;;;;;;;;;31.80;42.80;;;;;;5092870;28;19912;-70
2021/06/02 11:57:28;;;;;;;;;;;31.10;46.50;;;;;;5092461;28;19908;-69
2021/06/02 11:59:54;;;;;;;;;;;30.60;42.00;;;;;;5093084;28;20258;-70
2021/06/02 12:02:20;;;;;;;;;;;30.40;43.10;;;;;;5092083;28;19912;-70
2021/06/02 12:04:46;;;;;;;;;;;30.50;46.10;;;;;;5082997;28;20387;-69
2021/06/02 12:07:25;;;;;;;;;;;30.60;46.80;;;;;;5091893;28;19908;-69
2021/06/02 12:09:50;;;;;;;;;;;30.80;42.50;;;;;;5087108;28;19985;-70
2021/06/02 12:12:16;;;;;;;;;;;30.70;43.80;;;;;;5092502;28;19966;-70
2021/06/02 12:14:41;;;;;;;;;;;30.40;44.30;;;;;;5091863;28;19995;-69
2021/06/02 12:17:07;;;;;;;;;;;30.40;44.40;;;;;;5084894;28;20285;-70
2021/06/02 12:19:33;;;;;;;;;;;30.10;42.80;;;;;;5092362;28;20444;-69
2021/06/02 12:22:09;;;;;;;;;;;29.90;45.50;;;;;;5074037;28;19908;-70
2021/06/02 12:24:35;;;;;;;;;;;29.80;46.00;;;;;;5072002;28;20327;-70
2021/06/02 12:27:01;;;;;;;;;;;30.10;50.70;;;;;;5088938;28;19915;-70
2021/06/02 12:29:30;;;;;;;;;;;30.30;43.50;;;;;;5090902;28;19912;-70
2021/06/02 12:31:58;;;;;;;;;;;30.30;43.30;;;;;;5092405;28;19912;-70
2021/06/02 12:34:27;;;;;;;;;;;30.40;41.90;;;;;;5092389;28;19916;-69
2021/06/02 12:36:53;;;;;;;;;;;30.70;43.50;;;;;;5090664;28;19908;-70
2021/06/02 12:39:20;;;;;;;;;;;30.90;42.30;;;;;;5092152;28;19909;-71
2021/06/02 12:41:47;;;;;;;;;;;31.00;41.60;;;;;;5091687;28;20380;-70
2021/06/02 12:44:13;;;;;;;;;;;31.00;47.60;;;;;;5092253;28;20056;-70
2021/06/02 12:46:39;;;;;;;;;;;31.10;42.30;;;;;;5084264;28;19908;-70
2021/06/02 12:49:06;;;;;;;;;;;30.80;42.80;;;;;;5091935;28;19908;-69
2021/06/02 12:51:31;;;;;;;;;;;30.60;44.10;;;;;;5091942;28;19916;-70
2021/06/02 12:53:57;;;;;;;;;;;30.50;44.60;;;;;;5091989;28;20388;-70
2021/06/02 12:56:22;;;;;;;;;;;30.60;41.90;;;;;;5090659;28;19934;-70
2021/06/02 12:58:55;;;;;;;;;;;30.60;42.10;;;;;;5091894;28;19957;-70
2021/06/02 13:01:21;;;;;;;;;;;30.80;44.20;;;;;;5091917;28;19914;-69
2021/06/02 13:03:48;;;;;;;;;;;30.90;44.30;;;;;;5091828;28;20345;-70
2021/06/02 13:06:15;;;;;;;;;;;31.20;40.90;;;;;;5091146;28;20326;-71
2021/06/02 13:08:41;;;;;;;;;;;31.50;44.00;;;;;;5091386;28;19908;-70
2021/06/02 13:11:07;;;;;;;;;;;31.80;46.90;;;;;;5091458;28;19908;-70
2021/06/02 13:13:32;;;;;;;;;;;32.10;41.30;;;;;;5091616;28;20277;-70
2021/06/02 13:15:58;;;;;;;;;;;32.10;44.40;;;;;;5086460;28;19924;-70
2021/06/02 13:18:28;;;;;;;;;;;32.30;42.60;;;;;;5089145;28;19908;-70
2021/06/02 13:20:54;;;;;;;;;;;32.50;40.90;;;;;;5090486;28;20361;-70
2021/06/02 13:23:22;;;;;;;;;;;32.60;41.60;;;;;;5091755;28;20384;-69
2021/06/02 13:26:03;;;;;;;;;;;32.80;44.30;;;;;;5090129;28;19932;-70
2021/06/02 13:28:29;;;;;;;;;;;32.80;40.40;;;;;;5091523;28;19913;-71
2021/06/02 13:30:56;;;;;;;;;;;32.90;43.70;;;;;;5091027;28;20023;-71
2021/06/02 13:33:22;;;;;;;;;;;33.10;40.50;;;;;;5090879;28;19916;-71
2021/06/02 13:35:59;;;;;;;;;;;33.00;40.10;;;;;;5083359;28;19912;-71
2021/06/02 13:38:25;;;;;;;;;;;32.90;44.00;;;;;;5091118;28;20357;-70
2021/06/02 13:40:50;;;;;;;;;;;32.60;43.30;;;;;;5091275;28;19916;-71
2021/06/02 13:43:17;;;;;;;;;;;32.30;42.60;;;;;;5091250;28;19908;-71
2021/06/02 13:45:49;;;;;;;;;;;32.00;42.60;;;;;;5085605;28;19951;-71
2021/06/02 13:48:35;;;;;;;;;;;31.50;41.90;;;;;;5071552;28;20016;-71
2021/06/02 13:51:13;;;;;;;;;;;31.20;43.00;;;;;;5088969;28;19909;-71
2021/06/02 13:53:57;;;;;;;;;;;30.80;46.00;;;;;;5089242;28;20342;-71
2021/06/02 13:56:23;;;;;;;;;;;30.40;43.90;;;;;;5089806;28;19908;-71
2021/06/02 13:59:07;;;;;;;;;;;30.20;43.70;;;;;;5080355;28;20396;-71
2021/06/02 14:01:33;;;;;;;;;;;30.30;45.40;;;;;;5072495;28;19959;-72
2021/06/02 14:03:58;;;;;;;;;;;30.40;44.00;;;;;;5072383;28;19912;-72
2021/06/02 14:06:26;;;;;;;;;;;30.60;45.40;;;;;;5068776;28;20300;-71
2021/06/02 14:08:52;;;;;;;;;;;30.70;47.40;;;;;;5069848;28;19958;-71
2021/06/02 14:11:22;;;;;;;;;;;30.80;43.50;;;;;;5069648;28;20012;-72
2021/06/02 14:13:47;;;;;;;;;;;30.90;41.60;;;;;;5071155;28;19966;-71
2021/06/02 14:16:13;;;;;;;;;;;30.90;43.80;;;;;;5070062;28;20374;-71
2021/06/02 14:18:38;;;;;;;;;;;31.00;44.50;;;;;;5088787;28;20281;-71
2021/06/02 14:21:04;;;;;;;;;;;31.20;45.60;;;;;;5090456;28;19912;-72
2021/06/02 14:23:29;;;;;;;;;;;31.40;44.20;;;;;;5090816;28;19912;-71
2021/06/02 14:25:55;;;;;;;;;;;31.60;43.70;;;;;;5088422;28;19958;-71
2021/06/02 14:28:20;;;;;;;;;;;31.60;42.90;;;;;;5089253;28;19912;-72
2021/06/02 14:30:46;;;;;;;;;;;31.50;42.50;;;;;;5090538;28;19909;-71
2021/06/02 14:33:11;;;;;;;;;;;31.80;42.40;;;;;;5090909;28;20261;-72
2021/06/02 14:35:37;;;;;;;;;;;31.80;42.00;;;;;;5085939;28;19960;-70
2021/06/02 14:38:04;;;;;;;;;;;31.70;43.80;;;;;;5086980;28;20284;-72